sensor_id;sensor_type;location;lat;lon;timestamp;P1;durP1;ratioP1;P2;durP2;ratioP2
1563;SDS011;775;51.958;7.976;2023-07-09T00:02:08;16.53;;;7.80;;
1563;SDS011;775;51.958;7.976;2023-07-09T00:04:36;16.00;;;7.30;;
1563;SDS011;775;51.958;7.976;2023-07-09T00:07:03;17.37;;;7.10;;
1563;SDS011;775;51.958;7.976;2023-07-09T00:09:31;16.30;;;6.60;;
1563;SDS011;775;51.958;7.976;2023-07-09T00:12:00;16.30;;;7.37;;
1563;SDS011;775;51.958;7.976;2023-07-09T00:14:27;16.10;;;7.73;;
1563;SDS011;775;51.958;7.976;2023-07-09T00:16:54;17.27;;;7.63;;
1563;SDS011;775;51.958;7.976;2023-07-09T00:19:21;15.23;;;6.90;;
1563;SDS011;775;51.958;7.976;2023-07-09T00:21:50;15.23;;;7.20;;
1563;SDS011;775;51.958;7.976;2023-07-09T00:24:18;16.83;;;7.27;;
1563;SDS011;775;51.958;7.976;2023-07-09T00:26:45;16.87;;;7.73;;
1563;SDS011;775;51.958;7.976;2023-07-09T00:29:15;15.60;;;7.27;;
1563;SDS011;775;51.958;7.976;2023-07-09T00:31:42;14.83;;;6.63;;
1563;SDS011;775;51.958;7.976;2023-07-09T00:34:10;17.17;;;7.37;;
1563;SDS011;775;51.958;7.976;2023-07-09T00:36:37;17.93;;;7.40;;
1563;SDS011;775;51.958;7.976;2023-07-09T00:39:08;16.73;;;7.37;;
1563;SDS011;775;51.958;7.976;2023-07-09T00:41:37;14.70;;;6.93;;
1563;SDS011;775;51.958;7.976;2023-07-09T00:44:20;16.20;;;6.73;;
1563;SDS011;775;51.958;7.976;2023-07-09T00:49:36;15.93;;;7.00;;
1563;SDS011;775;51.958;7.976;2023-07-09T00:52:19;17.40;;;6.70;;
1563;SDS011;775;51.958;7.976;2023-07-09T00:54:47;15.00;;;6.53;;
1563;SDS011;775;51.958;7.976;2023-07-09T00:57:15;15.60;;;7.33;;
1563;SDS011;775;51.958;7.976;2023-07-09T00:59:45;16.37;;;7.30;;
1563;SDS011;775;51.958;7.976;2023-07-09T01:02:14;16.27;;;6.97;;
1563;SDS011;775;51.958;7.976;2023-07-09T01:04:42;15.47;;;7.20;;
1563;SDS011;775;51.958;7.976;2023-07-09T01:07:12;16.80;;;7.17;;
1563;SDS011;775;51.958;7.976;2023-07-09T01:09:40;16.70;;;7.20;;
1563;SDS011;775;51.958;7.976;2023-07-09T01:12:07;16.03;;;6.93;;
1563;SDS011;775;51.958;7.976;2023-07-09T01:14:35;14.40;;;6.93;;
1563;SDS011;775;51.958;7.976;2023-07-09T01:17:05;15.47;;;7.47;;
1563;SDS011;775;51.958;7.976;2023-07-09T01:19:36;15.83;;;6.47;;
1563;SDS011;775;51.958;7.976;2023-07-09T01:22:09;17.13;;;7.37;;
1563;SDS011;775;51.958;7.976;2023-07-09T01:24:48;15.37;;;7.07;;
1563;SDS011;775;51.958;7.976;2023-07-09T01:27:16;19.00;;;7.60;;
1563;SDS011;775;51.958;7.976;2023-07-09T01:29:44;15.90;;;7.20;;
1563;SDS011;775;51.958;7.976;2023-07-09T01:32:14;15.97;;;7.50;;
1563;SDS011;775;51.958;7.976;2023-07-09T01:34:42;15.20;;;6.87;;
1563;SDS011;775;51.958;7.976;2023-07-09T01:37:10;16.00;;;6.57;;
1563;SDS011;775;51.958;7.976;2023-07-09T01:39:38;16.07;;;7.30;;
1563;SDS011;775;51.958;7.976;2023-07-09T01:42:06;14.13;;;6.30;;
1563;SDS011;775;51.958;7.976;2023-07-09T01:44:33;17.07;;;8.30;;
1563;SDS011;775;51.958;7.976;2023-07-09T01:47:00;16.80;;;7.50;;
1563;SDS011;775;51.958;7.976;2023-07-09T01:49:29;16.43;;;7.30;;
1563;SDS011;775;51.958;7.976;2023-07-09T01:51:57;17.60;;;7.07;;
1563;SDS011;775;51.958;7.976;2023-07-09T01:54:27;16.87;;;6.83;;
1563;SDS011;775;51.958;7.976;2023-07-09T01:56:54;15.80;;;6.97;;
1563;SDS011;775;51.958;7.976;2023-07-09T01:59:26;14.83;;;7.50;;
1563;SDS011;775;51.958;7.976;2023-07-09T02:01:53;16.90;;;7.40;;
1563;SDS011;775;51.958;7.976;2023-07-09T02:04:22;15.53;;;7.20;;
1563;SDS011;775;51.958;7.976;2023-07-09T02:06:53;15.27;;;7.00;;
1563;SDS011;775;51.958;7.976;2023-07-09T02:09:20;16.07;;;7.07;;
1563;SDS011;775;51.958;7.976;2023-07-09T02:11:48;15.23;;;7.97;;
1563;SDS011;775;51.958;7.976;2023-07-09T02:14:15;15.17;;;6.80;;
1563;SDS011;775;51.958;7.976;2023-07-09T02:16:44;16.70;;;7.90;;
1563;SDS011;775;51.958;7.976;2023-07-09T02:19:11;16.57;;;8.13;;
1563;SDS011;775;51.958;7.976;2023-07-09T02:21:38;15.37;;;7.10;;
1563;SDS011;775;51.958;7.976;2023-07-09T02:24:05;18.73;;;7.17;;
1563;SDS011;775;51.958;7.976;2023-07-09T02:26:32;15.50;;;7.37;;
1563;SDS011;775;51.958;7.976;2023-07-09T02:29:01;17.00;;;7.90;;
1563;SDS011;775;51.958;7.976;2023-07-09T02:31:28;16.27;;;8.20;;
1563;SDS011;775;51.958;7.976;2023-07-09T02:33:55;19.37;;;8.47;;
1563;SDS011;775;51.958;7.976;2023-07-09T02:36:23;17.60;;;7.97;;
1563;SDS011;775;51.958;7.976;2023-07-09T02:38:51;16.17;;;7.80;;
1563;SDS011;775;51.958;7.976;2023-07-09T02:41:18;16.10;;;7.57;;
1563;SDS011;775;51.958;7.976;2023-07-09T02:43:45;15.97;;;7.40;;
1563;SDS011;775;51.958;7.976;2023-07-09T02:46:13;21.30;;;8.00;;
1563;SDS011;775;51.958;7.976;2023-07-09T02:48:40;15.97;;;7.73;;
1563;SDS011;775;51.958;7.976;2023-07-09T02:51:07;16.23;;;7.70;;
1563;SDS011;775;51.958;7.976;2023-07-09T02:53:34;15.60;;;6.80;;
1563;SDS011;775;51.958;7.976;2023-07-09T02:56:01;16.50;;;7.80;;
1563;SDS011;775;51.958;7.976;2023-07-09T02:58:28;16.50;;;7.73;;
1563;SDS011;775;51.958;7.976;2023-07-09T03:00:56;15.60;;;7.83;;
1563;SDS011;775;51.958;7.976;2023-07-09T03:03:24;15.67;;;7.30;;
1563;SDS011;775;51.958;7.976;2023-07-09T03:05:53;16.50;;;8.80;;
1563;SDS011;775;51.958;7.976;2023-07-09T03:08:20;17.43;;;8.43;;
1563;SDS011;775;51.958;7.976;2023-07-09T03:10:47;15.87;;;7.87;;
1563;SDS011;775;51.958;7.976;2023-07-09T03:13:14;19.00;;;7.60;;
1563;SDS011;775;51.958;7.976;2023-07-09T03:15:42;16.47;;;6.97;;
1563;SDS011;775;51.958;7.976;2023-07-09T03:18:09;15.87;;;7.50;;
1563;SDS011;775;51.958;7.976;2023-07-09T03:20:37;17.10;;;8.00;;
1563;SDS011;775;51.958;7.976;2023-07-09T03:23:05;16.70;;;8.60;;
1563;SDS011;775;51.958;7.976;2023-07-09T03:25:32;17.10;;;8.50;;
1563;SDS011;775;51.958;7.976;2023-07-09T03:27:59;15.47;;;7.60;;
1563;SDS011;775;51.958;7.976;2023-07-09T03:30:26;17.00;;;7.93;;
1563;SDS011;775;51.958;7.976;2023-07-09T03:32:53;16.10;;;7.70;;
1563;SDS011;775;51.958;7.976;2023-07-09T03:35:21;15.80;;;7.30;;
1563;SDS011;775;51.958;7.976;2023-07-09T03:37:49;17.20;;;8.30;;
1563;SDS011;775;51.958;7.976;2023-07-09T03:40:20;17.67;;;7.90;;
1563;SDS011;775;51.958;7.976;2023-07-09T03:42:47;17.10;;;7.87;;
1563;SDS011;775;51.958;7.976;2023-07-09T03:45:14;15.10;;;7.43;;
1563;SDS011;775;51.958;7.976;2023-07-09T03:47:41;17.60;;;8.57;;
1563;SDS011;775;51.958;7.976;2023-07-09T03:50:09;18.17;;;7.93;;
1563;SDS011;775;51.958;7.976;2023-07-09T03:52:37;18.20;;;8.57;;
1563;SDS011;775;51.958;7.976;2023-07-09T03:55:06;17.37;;;8.00;;
1563;SDS011;775;51.958;7.976;2023-07-09T03:57:33;17.47;;;8.03;;
1563;SDS011;775;51.958;7.976;2023-07-09T04:00:01;15.90;;;7.10;;
1563;SDS011;775;51.958;7.976;2023-07-09T04:02:29;17.07;;;7.90;;
1563;SDS011;775;51.958;7.976;2023-07-09T04:04:56;16.73;;;8.03;;
1563;SDS011;775;51.958;7.976;2023-07-09T04:07:23;16.97;;;8.77;;
1563;SDS011;775;51.958;7.976;2023-07-09T04:09:50;16.53;;;7.73;;
1563;SDS011;775;51.958;7.976;2023-07-09T04:12:19;17.70;;;8.13;;
1563;SDS011;775;51.958;7.976;2023-07-09T04:14:46;17.80;;;8.20;;
1563;SDS011;775;51.958;7.976;2023-07-09T04:17:13;17.03;;;7.80;;
1563;SDS011;775;51.958;7.976;2023-07-09T04:19:40;16.27;;;7.73;;
1563;SDS011;775;51.958;7.976;2023-07-09T04:22:07;16.00;;;8.03;;
1563;SDS011;775;51.958;7.976;2023-07-09T04:24:34;16.37;;;8.17;;
1563;SDS011;775;51.958;7.976;2023-07-09T04:27:02;17.27;;;8.50;;
1563;SDS011;775;51.958;7.976;2023-07-09T04:29:30;15.27;;;7.43;;
1563;SDS011;775;51.958;7.976;2023-07-09T04:31:59;17.43;;;9.10;;
1563;SDS011;775;51.958;7.976;2023-07-09T04:34:26;16.50;;;8.50;;
1563;SDS011;775;51.958;7.976;2023-07-09T04:36:53;17.60;;;8.40;;
1563;SDS011;775;51.958;7.976;2023-07-09T04:39:20;18.90;;;8.87;;
1563;SDS011;775;51.958;7.976;2023-07-09T04:41:47;20.33;;;7.90;;
1563;SDS011;775;51.958;7.976;2023-07-09T04:44:14;17.57;;;8.10;;
1563;SDS011;775;51.958;7.976;2023-07-09T04:46:42;19.50;;;8.77;;
1563;SDS011;775;51.958;7.976;2023-07-09T04:49:09;18.43;;;8.50;;
1563;SDS011;775;51.958;7.976;2023-07-09T04:51:37;16.07;;;8.07;;
1563;SDS011;775;51.958;7.976;2023-07-09T04:54:04;19.73;;;9.73;;
1563;SDS011;775;51.958;7.976;2023-07-09T04:56:31;16.57;;;8.80;;
1563;SDS011;775;51.958;7.976;2023-07-09T04:58:58;17.17;;;8.47;;
1563;SDS011;775;51.958;7.976;2023-07-09T05:01:25;17.23;;;8.27;;
1563;SDS011;775;51.958;7.976;2023-07-09T05:03:54;19.60;;;9.10;;
1563;SDS011;775;51.958;7.976;2023-07-09T05:06:21;16.70;;;8.50;;
1563;SDS011;775;51.958;7.976;2023-07-09T05:08:48;17.67;;;8.13;;
1563;SDS011;775;51.958;7.976;2023-07-09T05:11:15;18.43;;;9.07;;
1563;SDS011;775;51.958;7.976;2023-07-09T05:13:42;16.87;;;8.30;;
1563;SDS011;775;51.958;7.976;2023-07-09T05:16:09;19.93;;;9.50;;
1563;SDS011;775;51.958;7.976;2023-07-09T05:18:37;16.90;;;8.53;;
1563;SDS011;775;51.958;7.976;2023-07-09T05:21:05;19.57;;;8.40;;
1563;SDS011;775;51.958;7.976;2023-07-09T05:23:32;17.57;;;8.57;;
1563;SDS011;775;51.958;7.976;2023-07-09T05:26:00;17.60;;;8.80;;
1563;SDS011;775;51.958;7.976;2023-07-09T05:28:27;16.70;;;8.10;;
1563;SDS011;775;51.958;7.976;2023-07-09T05:30:54;17.20;;;8.23;;
1563;SDS011;775;51.958;7.976;2023-07-09T05:33:22;19.63;;;8.77;;
1563;SDS011;775;51.958;7.976;2023-07-09T05:35:49;17.13;;;8.80;;
1563;SDS011;775;51.958;7.976;2023-07-09T05:38:17;17.07;;;8.27;;
1563;SDS011;775;51.958;7.976;2023-07-09T05:40:44;19.27;;;9.03;;
1563;SDS011;775;51.958;7.976;2023-07-09T05:43:11;15.93;;;7.87;;
1563;SDS011;775;51.958;7.976;2023-07-09T05:45:38;19.23;;;8.60;;
1563;SDS011;775;51.958;7.976;2023-07-09T05:48:05;16.77;;;7.30;;
1563;SDS011;775;51.958;7.976;2023-07-09T05:50:33;18.90;;;8.30;;
1563;SDS011;775;51.958;7.976;2023-07-09T05:53:01;16.60;;;8.00;;
1563;SDS011;775;51.958;7.976;2023-07-09T05:55:29;16.07;;;7.03;;
1563;SDS011;775;51.958;7.976;2023-07-09T05:57:57;16.03;;;6.70;;
1563;SDS011;775;51.958;7.976;2023-07-09T06:00:24;14.97;;;6.17;;
1563;SDS011;775;51.958;7.976;2023-07-09T06:02:51;15.60;;;6.60;;
1563;SDS011;775;51.958;7.976;2023-07-09T06:05:18;15.80;;;7.07;;
1563;SDS011;775;51.958;7.976;2023-07-09T06:07:45;15.20;;;6.90;;
1563;SDS011;775;51.958;7.976;2023-07-09T06:10:13;14.10;;;6.00;;
1563;SDS011;775;51.958;7.976;2023-07-09T06:12:41;14.70;;;7.17;;
1563;SDS011;775;51.958;7.976;2023-07-09T06:15:09;15.57;;;6.97;;
1563;SDS011;775;51.958;7.976;2023-07-09T06:17:37;14.20;;;5.93;;
1563;SDS011;775;51.958;7.976;2023-07-09T06:20:05;15.07;;;7.53;;
1563;SDS011;775;51.958;7.976;2023-07-09T06:22:32;15.23;;;6.77;;
1563;SDS011;775;51.958;7.976;2023-07-09T06:24:59;14.17;;;6.13;;
1563;SDS011;775;51.958;7.976;2023-07-09T06:27:26;13.70;;;5.93;;
1563;SDS011;775;51.958;7.976;2023-07-09T06:29:55;14.53;;;6.60;;
1563;SDS011;775;51.958;7.976;2023-07-09T06:32:22;15.70;;;6.63;;
1563;SDS011;775;51.958;7.976;2023-07-09T06:34:49;14.70;;;6.20;;
1563;SDS011;775;51.958;7.976;2023-07-09T06:37:16;14.23;;;5.57;;
1563;SDS011;775;51.958;7.976;2023-07-09T06:39:43;13.17;;;5.50;;
1563;SDS011;775;51.958;7.976;2023-07-09T06:42:11;14.80;;;6.50;;
1563;SDS011;775;51.958;7.976;2023-07-09T06:44:38;13.90;;;5.87;;
1563;SDS011;775;51.958;7.976;2023-07-09T06:47:06;14.20;;;5.70;;
1563;SDS011;775;51.958;7.976;2023-07-09T06:49:34;14.50;;;5.60;;
1563;SDS011;775;51.958;7.976;2023-07-09T06:52:01;15.30;;;6.80;;
1563;SDS011;775;51.958;7.976;2023-07-09T06:54:28;13.30;;;5.90;;
1563;SDS011;775;51.958;7.976;2023-07-09T06:56:55;14.20;;;6.07;;
1563;SDS011;775;51.958;7.976;2023-07-09T06:59:22;14.20;;;6.30;;
1563;SDS011;775;51.958;7.976;2023-07-09T07:01:49;14.27;;;6.20;;
1563;SDS011;775;51.958;7.976;2023-07-09T07:04:17;14.13;;;5.83;;
1563;SDS011;775;51.958;7.976;2023-07-09T07:06:45;16.00;;;7.57;;
1563;SDS011;775;51.958;7.976;2023-07-09T07:09:12;16.67;;;6.27;;
1563;SDS011;775;51.958;7.976;2023-07-09T07:11:39;15.73;;;7.03;;
1563;SDS011;775;51.958;7.976;2023-07-09T07:14:06;13.73;;;5.63;;
1563;SDS011;775;51.958;7.976;2023-07-09T07:16:33;14.20;;;6.10;;
1563;SDS011;775;51.958;7.976;2023-07-09T07:19:00;14.73;;;6.33;;
1563;SDS011;775;51.958;7.976;2023-07-09T07:21:28;13.87;;;5.20;;
1563;SDS011;775;51.958;7.976;2023-07-09T07:23:55;14.80;;;5.90;;
1563;SDS011;775;51.958;7.976;2023-07-09T07:26:22;13.77;;;5.70;;
1563;SDS011;775;51.958;7.976;2023-07-09T07:28:50;13.70;;;5.50;;
1563;SDS011;775;51.958;7.976;2023-07-09T07:31:17;13.73;;;5.73;;
1563;SDS011;775;51.958;7.976;2023-07-09T07:33:44;13.30;;;5.33;;
1563;SDS011;775;51.958;7.976;2023-07-09T07:36:11;13.67;;;6.00;;
1563;SDS011;775;51.958;7.976;2023-07-09T07:38:40;14.70;;;6.03;;
1563;SDS011;775;51.958;7.976;2023-07-09T07:41:07;13.23;;;5.40;;
1563;SDS011;775;51.958;7.976;2023-07-09T07:43:35;13.70;;;6.00;;
1563;SDS011;775;51.958;7.976;2023-07-09T07:46:02;14.67;;;6.03;;
1563;SDS011;775;51.958;7.976;2023-07-09T07:48:29;13.80;;;5.30;;
1563;SDS011;775;51.958;7.976;2023-07-09T07:50:59;13.50;;;5.30;;
1563;SDS011;775;51.958;7.976;2023-07-09T07:53:27;14.47;;;5.57;;
1563;SDS011;775;51.958;7.976;2023-07-09T07:55:57;14.20;;;6.27;;
1563;SDS011;775;51.958;7.976;2023-07-09T07:58:26;14.60;;;6.40;;
1563;SDS011;775;51.958;7.976;2023-07-09T08:00:57;15.80;;;6.63;;
1563;SDS011;775;51.958;7.976;2023-07-09T08:03:24;15.00;;;5.53;;
1563;SDS011;775;51.958;7.976;2023-07-09T08:05:52;13.20;;;5.20;;
1563;SDS011;775;51.958;7.976;2023-07-09T08:08:19;13.80;;;5.13;;
1563;SDS011;775;51.958;7.976;2023-07-09T08:10:49;13.87;;;5.70;;
1563;SDS011;775;51.958;7.976;2023-07-09T08:13:17;14.10;;;5.70;;
1563;SDS011;775;51.958;7.976;2023-07-09T08:15:45;13.87;;;5.40;;
1563;SDS011;775;51.958;7.976;2023-07-09T08:18:12;15.00;;;5.63;;
1563;SDS011;775;51.958;7.976;2023-07-09T08:20:42;14.70;;;5.93;;
1563;SDS011;775;51.958;7.976;2023-07-09T08:23:09;14.50;;;5.90;;
1563;SDS011;775;51.958;7.976;2023-07-09T08:25:36;15.40;;;5.47;;
1563;SDS011;775;51.958;7.976;2023-07-09T08:28:03;15.07;;;5.23;;
1563;SDS011;775;51.958;7.976;2023-07-09T08:30:32;14.43;;;5.97;;
1563;SDS011;775;51.958;7.976;2023-07-09T08:32:59;13.27;;;5.00;;
1563;SDS011;775;51.958;7.976;2023-07-09T08:35:27;12.60;;;4.83;;
1563;SDS011;775;51.958;7.976;2023-07-09T08:37:54;14.63;;;5.73;;
1563;SDS011;775;51.958;7.976;2023-07-09T08:40:21;14.10;;;5.37;;
1563;SDS011;775;51.958;7.976;2023-07-09T08:42:49;13.50;;;5.37;;
1563;SDS011;775;51.958;7.976;2023-07-09T08:45:24;15.67;;;5.93;;
1563;SDS011;775;51.958;7.976;2023-07-09T08:47:56;36.70;;;6.13;;
1563;SDS011;775;51.958;7.976;2023-07-09T08:50:26;18.90;;;5.50;;
1563;SDS011;775;51.958;7.976;2023-07-09T08:52:56;23.00;;;6.20;;
1563;SDS011;775;51.958;7.976;2023-07-09T08:55:25;24.57;;;6.50;;
1563;SDS011;775;51.958;7.976;2023-07-09T08:57:54;18.30;;;6.27;;
1563;SDS011;775;51.958;7.976;2023-07-09T09:00:27;26.73;;;6.17;;
1563;SDS011;775;51.958;7.976;2023-07-09T09:02:58;15.40;;;5.90;;
1563;SDS011;775;51.958;7.976;2023-07-09T09:05:26;17.67;;;6.17;;
1563;SDS011;775;51.958;7.976;2023-07-09T09:07:55;14.77;;;5.23;;
1563;SDS011;775;51.958;7.976;2023-07-09T09:10:24;17.00;;;5.10;;
1563;SDS011;775;51.958;7.976;2023-07-09T09:12:59;16.73;;;6.27;;
1563;SDS011;775;51.958;7.976;2023-07-09T09:15:29;19.03;;;6.27;;
1563;SDS011;775;51.958;7.976;2023-07-09T09:20:41;14.20;;;5.40;;
1563;SDS011;775;51.958;7.976;2023-07-09T09:23:11;16.57;;;6.10;;
1563;SDS011;775;51.958;7.976;2023-07-09T09:25:41;15.70;;;5.50;;
1563;SDS011;775;51.958;7.976;2023-07-09T09:28:08;14.33;;;5.40;;
1563;SDS011;775;51.958;7.976;2023-07-09T09:30:35;15.57;;;4.60;;
1563;SDS011;775;51.958;7.976;2023-07-09T09:33:06;14.67;;;5.70;;
1563;SDS011;775;51.958;7.976;2023-07-09T09:35:34;16.93;;;5.07;;
1563;SDS011;775;51.958;7.976;2023-07-09T09:38:01;17.27;;;5.40;;
1563;SDS011;775;51.958;7.976;2023-07-09T09:40:32;14.30;;;4.80;;
1563;SDS011;775;51.958;7.976;2023-07-09T09:43:01;17.10;;;5.50;;
1563;SDS011;775;51.958;7.976;2023-07-09T09:45:33;15.50;;;4.60;;
1563;SDS011;775;51.958;7.976;2023-07-09T09:48:02;14.27;;;4.77;;
1563;SDS011;775;51.958;7.976;2023-07-09T09:50:37;16.80;;;5.53;;
1563;SDS011;775;51.958;7.976;2023-07-09T09:53:06;17.67;;;5.30;;
1563;SDS011;775;51.958;7.976;2023-07-09T09:55:34;13.70;;;4.97;;
1563;SDS011;775;51.958;7.976;2023-07-09T09:58:01;12.90;;;4.53;;
1563;SDS011;775;51.958;7.976;2023-07-09T10:00:28;13.07;;;4.60;;
1563;SDS011;775;51.958;7.976;2023-07-09T10:02:58;12.93;;;5.00;;
1563;SDS011;775;51.958;7.976;2023-07-09T10:05:29;17.57;;;6.03;;
1563;SDS011;775;51.958;7.976;2023-07-09T10:08:00;16.93;;;5.70;;
1563;SDS011;775;51.958;7.976;2023-07-09T10:10:30;15.23;;;5.37;;
1563;SDS011;775;51.958;7.976;2023-07-09T10:13:01;15.03;;;6.13;;
1563;SDS011;775;51.958;7.976;2023-07-09T10:15:33;14.93;;;5.97;;
1563;SDS011;775;51.958;7.976;2023-07-09T10:18:02;17.83;;;6.17;;
1563;SDS011;775;51.958;7.976;2023-07-09T10:20:32;17.73;;;5.73;;
1563;SDS011;775;51.958;7.976;2023-07-09T10:23:10;18.60;;;5.17;;
1563;SDS011;775;51.958;7.976;2023-07-09T10:25:40;17.10;;;6.40;;
1563;SDS011;775;51.958;7.976;2023-07-09T10:28:15;14.00;;;5.20;;
1563;SDS011;775;51.958;7.976;2023-07-09T10:30:47;14.77;;;5.83;;
1563;SDS011;775;51.958;7.976;2023-07-09T10:33:17;13.23;;;4.37;;
1563;SDS011;775;51.958;7.976;2023-07-09T10:35:49;15.80;;;5.10;;
1563;SDS011;775;51.958;7.976;2023-07-09T10:38:27;17.83;;;5.20;;
1563;SDS011;775;51.958;7.976;2023-07-09T10:40:59;15.80;;;5.60;;
1563;SDS011;775;51.958;7.976;2023-07-09T10:43:31;13.20;;;5.27;;
1563;SDS011;775;51.958;7.976;2023-07-09T10:46:01;16.63;;;5.60;;
1563;SDS011;775;51.958;7.976;2023-07-09T10:48:31;14.67;;;5.30;;
1563;SDS011;775;51.958;7.976;2023-07-09T10:50:59;14.77;;;5.70;;
1563;SDS011;775;51.958;7.976;2023-07-09T10:53:30;15.47;;;5.40;;
1563;SDS011;775;51.958;7.976;2023-07-09T10:56:00;13.70;;;5.30;;
1563;SDS011;775;51.958;7.976;2023-07-09T10:58:31;13.17;;;4.50;;
1563;SDS011;775;51.958;7.976;2023-07-09T11:01:00;13.73;;;5.10;;
1563;SDS011;775;51.958;7.976;2023-07-09T11:03:30;15.93;;;6.10;;
1563;SDS011;775;51.958;7.976;2023-07-09T11:06:00;18.50;;;5.33;;
1563;SDS011;775;51.958;7.976;2023-07-09T11:08:30;13.80;;;4.60;;
1563;SDS011;775;51.958;7.976;2023-07-09T11:11:00;13.27;;;4.33;;
1563;SDS011;775;51.958;7.976;2023-07-09T11:13:31;14.00;;;4.63;;
1563;SDS011;775;51.958;7.976;2023-07-09T11:16:01;15.00;;;5.33;;
1563;SDS011;775;51.958;7.976;2023-07-09T11:18:30;14.13;;;4.90;;
1563;SDS011;775;51.958;7.976;2023-07-09T11:20:59;15.03;;;5.00;;
1563;SDS011;775;51.958;7.976;2023-07-09T11:23:38;15.03;;;5.33;;
1563;SDS011;775;51.958;7.976;2023-07-09T11:26:12;13.20;;;4.80;;
1563;SDS011;775;51.958;7.976;2023-07-09T11:28:46;13.00;;;5.10;;
1563;SDS011;775;51.958;7.976;2023-07-09T11:31:17;14.30;;;5.40;;
1563;SDS011;775;51.958;7.976;2023-07-09T11:33:45;13.47;;;4.70;;
1563;SDS011;775;51.958;7.976;2023-07-09T11:36:14;12.60;;;4.53;;
1563;SDS011;775;51.958;7.976;2023-07-09T11:38:42;12.90;;;4.10;;
1563;SDS011;775;51.958;7.976;2023-07-09T11:41:24;12.97;;;5.03;;
1563;SDS011;775;51.958;7.976;2023-07-09T11:43:51;15.73;;;5.17;;
1563;SDS011;775;51.958;7.976;2023-07-09T11:46:20;14.60;;;4.97;;
1563;SDS011;775;51.958;7.976;2023-07-09T11:48:49;14.47;;;5.03;;
1563;SDS011;775;51.958;7.976;2023-07-09T11:51:20;14.97;;;5.40;;
1563;SDS011;775;51.958;7.976;2023-07-09T11:53:49;14.97;;;5.00;;
1563;SDS011;775;51.958;7.976;2023-07-09T11:56:18;14.87;;;4.17;;
1563;SDS011;775;51.958;7.976;2023-07-09T11:58:50;14.27;;;4.70;;
1563;SDS011;775;51.958;7.976;2023-07-09T12:01:18;19.23;;;5.20;;
1563;SDS011;775;51.958;7.976;2023-07-09T12:03:46;15.97;;;4.27;;
1563;SDS011;775;51.958;7.976;2023-07-09T12:06:16;13.17;;;4.17;;
1563;SDS011;775;51.958;7.976;2023-07-09T12:08:44;13.50;;;4.30;;
1563;SDS011;775;51.958;7.976;2023-07-09T12:11:19;13.40;;;4.13;;
1563;SDS011;775;51.958;7.976;2023-07-09T12:13:47;12.93;;;4.43;;
1563;SDS011;775;51.958;7.976;2023-07-09T12:16:22;12.70;;;4.00;;
1563;SDS011;775;51.958;7.976;2023-07-09T12:18:50;13.67;;;4.60;;
1563;SDS011;775;51.958;7.976;2023-07-09T12:21:17;14.93;;;4.60;;
1563;SDS011;775;51.958;7.976;2023-07-09T12:23:44;11.83;;;3.90;;
1563;SDS011;775;51.958;7.976;2023-07-09T12:26:13;13.00;;;4.20;;
1563;SDS011;775;51.958;7.976;2023-07-09T12:28:40;12.90;;;4.90;;
1563;SDS011;775;51.958;7.976;2023-07-09T12:31:11;16.17;;;5.17;;
1563;SDS011;775;51.958;7.976;2023-07-09T12:33:46;12.80;;;4.67;;
1563;SDS011;775;51.958;7.976;2023-07-09T12:36:13;14.73;;;4.70;;
1563;SDS011;775;51.958;7.976;2023-07-09T12:38:41;13.07;;;4.43;;
1563;SDS011;775;51.958;7.976;2023-07-09T12:41:12;14.10;;;4.67;;
1563;SDS011;775;51.958;7.976;2023-07-09T12:43:43;12.77;;;3.83;;
1563;SDS011;775;51.958;7.976;2023-07-09T12:46:10;13.00;;;4.20;;
1563;SDS011;775;51.958;7.976;2023-07-09T12:48:37;13.03;;;4.20;;
1563;SDS011;775;51.958;7.976;2023-07-09T12:51:07;13.20;;;4.13;;
1563;SDS011;775;51.958;7.976;2023-07-09T12:53:36;13.00;;;4.27;;
1563;SDS011;775;51.958;7.976;2023-07-09T12:56:03;14.10;;;4.20;;
1563;SDS011;775;51.958;7.976;2023-07-09T12:58:37;13.20;;;3.97;;
1563;SDS011;775;51.958;7.976;2023-07-09T13:01:05;13.13;;;4.40;;
1563;SDS011;775;51.958;7.976;2023-07-09T13:03:32;13.03;;;4.10;;
1563;SDS011;775;51.958;7.976;2023-07-09T13:06:01;17.10;;;5.63;;
1563;SDS011;775;51.958;7.976;2023-07-09T13:08:30;13.17;;;4.30;;
1563;SDS011;775;51.958;7.976;2023-07-09T13:10:59;14.60;;;3.57;;
1563;SDS011;775;51.958;7.976;2023-07-09T13:13:26;16.20;;;4.10;;
1563;SDS011;775;51.958;7.976;2023-07-09T13:15:54;13.30;;;4.23;;
1563;SDS011;775;51.958;7.976;2023-07-09T13:18:24;12.87;;;4.00;;
1563;SDS011;775;51.958;7.976;2023-07-09T13:20:51;13.43;;;4.70;;
1563;SDS011;775;51.958;7.976;2023-07-09T13:23:19;12.93;;;5.23;;
1563;SDS011;775;51.958;7.976;2023-07-09T13:25:48;14.73;;;4.43;;
1563;SDS011;775;51.958;7.976;2023-07-09T13:28:16;15.70;;;4.20;;
1563;SDS011;775;51.958;7.976;2023-07-09T13:30:44;17.33;;;4.60;;
1563;SDS011;775;51.958;7.976;2023-07-09T13:33:11;12.93;;;4.30;;
1563;SDS011;775;51.958;7.976;2023-07-09T13:35:39;13.93;;;4.50;;
1563;SDS011;775;51.958;7.976;2023-07-09T13:38:11;15.10;;;4.50;;
1563;SDS011;775;51.958;7.976;2023-07-09T13:40:39;17.13;;;4.50;;
1563;SDS011;775;51.958;7.976;2023-07-09T13:43:09;12.80;;;4.13;;
1563;SDS011;775;51.958;7.976;2023-07-09T13:45:38;15.83;;;4.17;;
1563;SDS011;775;51.958;7.976;2023-07-09T13:48:09;11.93;;;3.40;;
1563;SDS011;775;51.958;7.976;2023-07-09T13:50:38;13.40;;;3.93;;
1563;SDS011;775;51.958;7.976;2023-07-09T13:53:09;12.80;;;4.13;;
1563;SDS011;775;51.958;7.976;2023-07-09T13:55:36;13.70;;;3.80;;
1563;SDS011;775;51.958;7.976;2023-07-09T13:58:03;12.40;;;3.40;;
1563;SDS011;775;51.958;7.976;2023-07-09T14:00:31;13.40;;;4.33;;
1563;SDS011;775;51.958;7.976;2023-07-09T14:02:58;14.83;;;4.57;;
1563;SDS011;775;51.958;7.976;2023-07-09T14:05:25;12.87;;;4.23;;
1563;SDS011;775;51.958;7.976;2023-07-09T14:07:53;14.70;;;4.23;;
1563;SDS011;775;51.958;7.976;2023-07-09T14:10:20;14.33;;;4.03;;
1563;SDS011;775;51.958;7.976;2023-07-09T14:12:47;12.60;;;4.03;;
1563;SDS011;775;51.958;7.976;2023-07-09T14:15:15;11.67;;;3.63;;
1563;SDS011;775;51.958;7.976;2023-07-09T14:17:44;12.33;;;3.73;;
1563;SDS011;775;51.958;7.976;2023-07-09T14:20:12;16.53;;;4.30;;
1563;SDS011;775;51.958;7.976;2023-07-09T14:22:40;13.40;;;4.10;;
1563;SDS011;775;51.958;7.976;2023-07-09T14:25:09;13.00;;;4.03;;
1563;SDS011;775;51.958;7.976;2023-07-09T14:27:41;13.93;;;4.00;;
1563;SDS011;775;51.958;7.976;2023-07-09T14:30:08;12.30;;;4.00;;
1563;SDS011;775;51.958;7.976;2023-07-09T14:32:37;13.60;;;3.90;;
1563;SDS011;775;51.958;7.976;2023-07-09T14:35:11;14.33;;;4.40;;
1563;SDS011;775;51.958;7.976;2023-07-09T14:37:39;13.53;;;3.90;;
1563;SDS011;775;51.958;7.976;2023-07-09T14:40:07;12.57;;;4.30;;
1563;SDS011;775;51.958;7.976;2023-07-09T14:42:34;11.57;;;3.23;;
1563;SDS011;775;51.958;7.976;2023-07-09T14:45:01;12.17;;;4.20;;
1563;SDS011;775;51.958;7.976;2023-07-09T14:47:28;12.80;;;4.03;;
1563;SDS011;775;51.958;7.976;2023-07-09T14:49:55;12.73;;;3.70;;
1563;SDS011;775;51.958;7.976;2023-07-09T14:52:24;13.50;;;4.60;;
1563;SDS011;775;51.958;7.976;2023-07-09T14:54:51;12.97;;;3.90;;
1563;SDS011;775;51.958;7.976;2023-07-09T14:57:19;13.47;;;4.40;;
1563;SDS011;775;51.958;7.976;2023-07-09T14:59:47;14.27;;;3.80;;
1563;SDS011;775;51.958;7.976;2023-07-09T15:02:19;11.60;;;4.00;;
1563;SDS011;775;51.958;7.976;2023-07-09T15:04:47;12.33;;;3.73;;
1563;SDS011;775;51.958;7.976;2023-07-09T15:07:14;13.00;;;4.37;;
1563;SDS011;775;51.958;7.976;2023-07-09T15:09:43;14.03;;;4.43;;
1563;SDS011;775;51.958;7.976;2023-07-09T15:12:15;13.77;;;4.20;;
1563;SDS011;775;51.958;7.976;2023-07-09T15:14:42;12.63;;;3.50;;
1563;SDS011;775;51.958;7.976;2023-07-09T15:17:10;12.17;;;3.43;;
1563;SDS011;775;51.958;7.976;2023-07-09T15:19:37;12.90;;;3.60;;
1563;SDS011;775;51.958;7.976;2023-07-09T15:22:04;13.17;;;3.80;;
1563;SDS011;775;51.958;7.976;2023-07-09T15:24:32;17.63;;;3.90;;
1563;SDS011;775;51.958;7.976;2023-07-09T15:27:02;13.80;;;4.63;;
1563;SDS011;775;51.958;7.976;2023-07-09T15:29:30;11.43;;;3.47;;